sensor_id;sensor_type;location;lat;lon;timestamp;P1;durP1;ratioP1;P2;durP2;ratioP2
48042;SDS011;33988;47.992;8.820;2023-07-29T00:01:54;1.40;;;1.30;;
48042;SDS011;33988;47.992;8.820;2023-07-29T00:04:21;1.65;;;1.10;;
48042;SDS011;33988;47.992;8.820;2023-07-29T00:06:50;2.00;;;1.40;;
48042;SDS011;33988;47.992;8.820;2023-07-29T00:09:19;1.88;;;1.33;;
48042;SDS011;33988;47.992;8.820;2023-07-29T00:11:49;1.60;;;1.50;;
48042;SDS011;33988;47.992;8.820;2023-07-29T00:14:18;1.67;;;1.58;;
48042;SDS011;33988;47.992;8.820;2023-07-29T00:16:45;1.73;;;1.48;;
48042;SDS011;33988;47.992;8.820;2023-07-29T00:19:12;1.40;;;1.25;;
48042;SDS011;33988;47.992;8.820;2023-07-29T00:21:39;1.92;;;1.40;;
48042;SDS011;33988;47.992;8.820;2023-07-29T00:24:08;2.08;;;1.55;;
48042;SDS011;33988;47.992;8.820;2023-07-29T00:26:35;1.38;;;1.27;;
48042;SDS011;33988;47.992;8.820;2023-07-29T00:29:04;1.58;;;1.38;;
48042;SDS011;33988;47.992;8.820;2023-07-29T00:31:33;1.98;;;1.52;;
48042;SDS011;33988;47.992;8.820;2023-07-29T00:34:03;2.20;;;1.52;;
48042;SDS011;33988;47.992;8.820;2023-07-29T00:36:29;1.67;;;1.45;;
48042;SDS011;33988;47.992;8.820;2023-07-29T00:38:56;1.70;;;1.60;;
48042;SDS011;33988;47.992;8.820;2023-07-29T00:41:23;3.00;;;1.77;;
48042;SDS011;33988;47.992;8.820;2023-07-29T00:43:52;1.70;;;1.52;;
48042;SDS011;33988;47.992;8.820;2023-07-29T00:46:19;1.75;;;1.52;;
48042;SDS011;33988;47.992;8.820;2023-07-29T00:48:47;2.88;;;1.50;;
48042;SDS011;33988;47.992;8.820;2023-07-29T00:51:17;2.75;;;1.65;;
48042;SDS011;33988;47.992;8.820;2023-07-29T00:53:46;1.90;;;1.70;;
48042;SDS011;33988;47.992;8.820;2023-07-29T00:56:13;8.43;;;2.17;;
48042;SDS011;33988;47.992;8.820;2023-07-29T00:58:42;2.25;;;1.77;;
48042;SDS011;33988;47.992;8.820;2023-07-29T01:01:09;1.95;;;1.70;;
48042;SDS011;33988;47.992;8.820;2023-07-29T01:03:36;2.40;;;1.65;;
48042;SDS011;33988;47.992;8.820;2023-07-29T01:09:03;2.05;;;1.80;;
48042;SDS011;33988;47.992;8.820;2023-07-29T01:14:47;2.17;;;1.75;;
48042;SDS011;33988;47.992;8.820;2023-07-29T01:17:43;1.63;;;1.52;;
48042;SDS011;33988;47.992;8.820;2023-07-29T01:20:15;3.20;;;1.58;;
48042;SDS011;33988;47.992;8.820;2023-07-29T01:22:43;3.97;;;1.67;;
48042;SDS011;33988;47.992;8.820;2023-07-29T01:25:10;1.60;;;1.50;;
48042;SDS011;33988;47.992;8.820;2023-07-29T01:27:37;1.52;;;1.42;;
48042;SDS011;33988;47.992;8.820;2023-07-29T01:30:07;1.55;;;1.45;;
48042;SDS011;33988;47.992;8.820;2023-07-29T01:37:53;1.75;;;1.50;;
48042;SDS011;33988;47.992;8.820;2023-07-29T01:40:30;2.72;;;1.77;;
48042;SDS011;33988;47.992;8.820;2023-07-29T01:42:58;3.50;;;1.48;;
48042;SDS011;33988;47.992;8.820;2023-07-29T01:45:25;1.88;;;1.40;;
48042;SDS011;33988;47.992;8.820;2023-07-29T01:47:52;4.93;;;1.50;;
48042;SDS011;33988;47.992;8.820;2023-07-29T01:50:19;1.58;;;1.40;;
48042;SDS011;33988;47.992;8.820;2023-07-29T01:52:46;5.45;;;1.27;;
48042;SDS011;33988;47.992;8.820;2023-07-29T01:55:15;14.52;;;1.63;;
48042;SDS011;33988;47.992;8.820;2023-07-29T01:57:45;3.03;;;1.23;;
48042;SDS011;33988;47.992;8.820;2023-07-29T02:00:12;2.83;;;1.38;;
48042;SDS011;33988;47.992;8.820;2023-07-29T02:02:39;2.78;;;1.55;;
48042;SDS011;33988;47.992;8.820;2023-07-29T02:05:09;1.98;;;1.77;;
48042;SDS011;33988;47.992;8.820;2023-07-29T02:07:36;2.35;;;1.98;;
48042;SDS011;33988;47.992;8.820;2023-07-29T02:10:05;5.47;;;2.28;;
48042;SDS011;33988;47.992;8.820;2023-07-29T02:12:35;5.25;;;1.50;;
48042;SDS011;33988;47.992;8.820;2023-07-29T02:15:03;8.05;;;1.23;;
48042;SDS011;33988;47.992;8.820;2023-07-29T02:17:30;1.33;;;1.05;;
48042;SDS011;33988;47.992;8.820;2023-07-29T02:19:57;1.20;;;1.10;;
48042;SDS011;33988;47.992;8.820;2023-07-29T02:22:24;1.48;;;1.30;;
48042;SDS011;33988;47.992;8.820;2023-07-29T02:24:51;3.10;;;1.10;;
48042;SDS011;33988;47.992;8.820;2023-07-29T02:27:23;7.45;;;1.50;;
48042;SDS011;33988;47.992;8.820;2023-07-29T02:29:53;1.83;;;1.00;;
48042;SDS011;33988;47.992;8.820;2023-07-29T02:32:23;1.33;;;1.10;;
48042;SDS011;33988;47.992;8.820;2023-07-29T02:34:50;1.30;;;1.20;;
48042;SDS011;33988;47.992;8.820;2023-07-29T02:37:17;1.45;;;1.33;;
48042;SDS011;33988;47.992;8.820;2023-07-29T02:39:44;1.15;;;1.05;;
48042;SDS011;33988;47.992;8.820;2023-07-29T02:42:11;1.08;;;1.02;;
48042;SDS011;33988;47.992;8.820;2023-07-29T02:44:40;1.30;;;1.20;;
48042;SDS011;33988;47.992;8.820;2023-07-29T02:47:07;3.25;;;1.27;;
48042;SDS011;33988;47.992;8.820;2023-07-29T02:49:37;2.33;;;1.13;;
48042;SDS011;33988;47.992;8.820;2023-07-29T02:52:04;1.35;;;1.23;;
48042;SDS011;33988;47.992;8.820;2023-07-29T02:54:33;1.30;;;1.20;;
48042;SDS011;33988;47.992;8.820;2023-07-29T02:57:00;1.13;;;1.02;;
48042;SDS011;33988;47.992;8.820;2023-07-29T02:59:27;8.25;;;1.17;;
48042;SDS011;33988;47.992;8.820;2023-07-29T03:01:54;3.35;;;1.30;;
48042;SDS011;33988;47.992;8.820;2023-07-29T03:04:21;1.42;;;1.15;;
48042;SDS011;33988;47.992;8.820;2023-07-29T03:06:49;1.88;;;1.02;;
48042;SDS011;33988;47.992;8.820;2023-07-29T03:09:16;1.60;;;0.95;;
48042;SDS011;33988;47.992;8.820;2023-07-29T03:11:43;1.27;;;1.17;;
48042;SDS011;33988;47.992;8.820;2023-07-29T03:14:12;1.02;;;1.02;;
48042;SDS011;33988;47.992;8.820;2023-07-29T03:16:39;1.67;;;1.00;;
48042;SDS011;33988;47.992;8.820;2023-07-29T03:19:06;1.67;;;1.33;;
48042;SDS011;33988;47.992;8.820;2023-07-29T03:21:33;4.40;;;1.35;;
48042;SDS011;33988;47.992;8.820;2023-07-29T03:24:03;1.10;;;1.00;;
48042;SDS011;33988;47.992;8.820;2023-07-29T03:26:30;1.40;;;1.10;;
48042;SDS011;33988;47.992;8.820;2023-07-29T03:28:57;4.10;;;1.30;;
48042;SDS011;33988;47.992;8.820;2023-07-29T03:31:26;7.03;;;1.38;;
48042;SDS011;33988;47.992;8.820;2023-07-29T03:33:58;1.30;;;1.20;;
48042;SDS011;33988;47.992;8.820;2023-07-29T03:36:25;1.20;;;1.10;;
48042;SDS011;33988;47.992;8.820;2023-07-29T03:38:54;1.38;;;1.27;;
48042;SDS011;33988;47.992;8.820;2023-07-29T03:41:21;1.38;;;1.27;;
48042;SDS011;33988;47.992;8.820;2023-07-29T03:43:48;1.52;;;1.08;;
48042;SDS011;33988;47.992;8.820;2023-07-29T03:46:17;2.20;;;1.25;;
48042;SDS011;33988;47.992;8.820;2023-07-29T03:48:47;2.87;;;1.17;;
48042;SDS011;33988;47.992;8.820;2023-07-29T03:51:14;1.33;;;1.23;;
48042;SDS011;33988;47.992;8.820;2023-07-29T03:53:41;1.25;;;1.15;;
48042;SDS011;33988;47.992;8.820;2023-07-29T03:56:10;1.15;;;1.05;;
48042;SDS011;33988;47.992;8.820;2023-07-29T03:58:37;1.25;;;1.15;;
48042;SDS011;33988;47.992;8.820;2023-07-29T04:01:04;1.30;;;1.20;;
48042;SDS011;33988;47.992;8.820;2023-07-29T04:03:34;1.35;;;1.25;;
48042;SDS011;33988;47.992;8.820;2023-07-29T04:06:01;1.10;;;1.00;;
48042;SDS011;33988;47.992;8.820;2023-07-29T04:08:30;1.60;;;1.20;;
48042;SDS011;33988;47.992;8.820;2023-07-29T04:10:58;1.10;;;1.00;;
48042;SDS011;33988;47.992;8.820;2023-07-29T04:13:24;1.35;;;1.25;;
48042;SDS011;33988;47.992;8.820;2023-07-29T04:15:51;1.20;;;1.10;;
48042;SDS011;33988;47.992;8.820;2023-07-29T04:18:18;1.30;;;1.20;;
48042;SDS011;33988;47.992;8.820;2023-07-29T04:20:45;1.40;;;1.30;;
48042;SDS011;33988;47.992;8.820;2023-07-29T04:23:14;1.20;;;1.10;;
48042;SDS011;33988;47.992;8.820;2023-07-29T04:25:41;1.33;;;1.23;;
48042;SDS011;33988;47.992;8.820;2023-07-29T04:28:08;1.48;;;1.38;;
48042;SDS011;33988;47.992;8.820;2023-07-29T04:30:35;1.15;;;1.05;;
48042;SDS011;33988;47.992;8.820;2023-07-29T04:33:02;1.88;;;1.40;;
48042;SDS011;33988;47.992;8.820;2023-07-29T04:35:30;1.50;;;1.38;;
48042;SDS011;33988;47.992;8.820;2023-07-29T04:37:57;2.80;;;1.67;;
48042;SDS011;33988;47.992;8.820;2023-07-29T04:40:26;1.38;;;1.27;;
48042;SDS011;33988;47.992;8.820;2023-07-29T04:42:53;1.40;;;1.30;;
48042;SDS011;33988;47.992;8.820;2023-07-29T04:45:20;1.38;;;1.27;;
48042;SDS011;33988;47.992;8.820;2023-07-29T04:47:46;1.58;;;1.48;;
48042;SDS011;33988;47.992;8.820;2023-07-29T04:50:16;1.50;;;1.35;;
48042;SDS011;33988;47.992;8.820;2023-07-29T04:52:43;1.63;;;1.42;;
48042;SDS011;33988;47.992;8.820;2023-07-29T04:55:14;1.63;;;1.52;;
48042;SDS011;33988;47.992;8.820;2023-07-29T04:57:44;1.80;;;1.45;;
48042;SDS011;33988;47.992;8.820;2023-07-29T05:00:11;1.65;;;1.50;;
48042;SDS011;33988;47.992;8.820;2023-07-29T05:02:41;2.73;;;1.17;;
48042;SDS011;33988;47.992;8.820;2023-07-29T05:05:08;1.70;;;1.60;;
48042;SDS011;33988;47.992;8.820;2023-07-29T05:07:35;1.50;;;1.40;;
48042;SDS011;33988;47.992;8.820;2023-07-29T05:10:02;2.22;;;1.77;;
48042;SDS011;33988;47.992;8.820;2023-07-29T05:12:29;2.30;;;1.55;;
48042;SDS011;33988;47.992;8.820;2023-07-29T05:14:59;3.88;;;1.55;;
48042;SDS011;33988;47.992;8.820;2023-07-29T05:17:30;3.40;;;1.48;;
48042;SDS011;33988;47.992;8.820;2023-07-29T05:19:57;1.92;;;1.75;;
48042;SDS011;33988;47.992;8.820;2023-07-29T05:22:24;1.48;;;1.38;;
48042;SDS011;33988;47.992;8.820;2023-07-29T05:24:53;1.88;;;1.33;;
48042;SDS011;33988;47.992;8.820;2023-07-29T05:27:23;2.20;;;1.38;;
48042;SDS011;33988;47.992;8.820;2023-07-29T05:29:50;1.73;;;1.63;;
48042;SDS011;33988;47.992;8.820;2023-07-29T05:32:17;2.03;;;1.30;;
48042;SDS011;33988;47.992;8.820;2023-07-29T05:34:44;2.33;;;1.58;;
48042;SDS011;33988;47.992;8.820;2023-07-29T05:37:11;1.58;;;1.40;;
48042;SDS011;33988;47.992;8.820;2023-07-29T05:39:41;1.55;;;1.45;;
48042;SDS011;33988;47.992;8.820;2023-07-29T05:42:08;1.58;;;1.48;;
48042;SDS011;33988;47.992;8.820;2023-07-29T05:44:37;1.70;;;1.50;;
48042;SDS011;33988;47.992;8.820;2023-07-29T05:47:07;1.83;;;1.73;;
48042;SDS011;33988;47.992;8.820;2023-07-29T05:49:34;1.92;;;1.73;;
48042;SDS011;33988;47.992;8.820;2023-07-29T05:52:01;3.38;;;1.77;;
48042;SDS011;33988;47.992;8.820;2023-07-29T05:54:28;1.50;;;1.35;;
48042;SDS011;33988;47.992;8.820;2023-07-29T05:56:55;2.13;;;1.80;;
48042;SDS011;33988;47.992;8.820;2023-07-29T05:59:27;1.33;;;1.23;;
48042;SDS011;33988;47.992;8.820;2023-07-29T06:01:56;6.22;;;1.85;;
48042;SDS011;33988;47.992;8.820;2023-07-29T06:04:23;2.53;;;1.85;;
48042;SDS011;33988;47.992;8.820;2023-07-29T06:06:49;2.55;;;2.00;;
48042;SDS011;33988;47.992;8.820;2023-07-29T06:09:16;2.38;;;1.58;;
48042;SDS011;33988;47.992;8.820;2023-07-29T06:11:43;3.63;;;2.08;;
48042;SDS011;33988;47.992;8.820;2023-07-29T06:14:10;2.13;;;1.92;;
48042;SDS011;33988;47.992;8.820;2023-07-29T06:16:37;7.22;;;2.47;;
48042;SDS011;33988;47.992;8.820;2023-07-29T06:19:05;2.67;;;2.30;;
48042;SDS011;33988;47.992;8.820;2023-07-29T06:21:35;2.30;;;2.10;;
48042;SDS011;33988;47.992;8.820;2023-07-29T06:24:02;5.00;;;2.45;;
48042;SDS011;33988;47.992;8.820;2023-07-29T06:26:29;2.53;;;2.33;;
48042;SDS011;33988;47.992;8.820;2023-07-29T06:28:58;3.75;;;2.25;;
48042;SDS011;33988;47.992;8.820;2023-07-29T06:31:25;3.78;;;2.63;;
48042;SDS011;33988;47.992;8.820;2023-07-29T06:33:59;2.88;;;2.47;;
48042;SDS011;33988;47.992;8.820;2023-07-29T06:36:28;4.47;;;2.40;;
48042;SDS011;33988;47.992;8.820;2023-07-29T06:38:57;2.58;;;2.38;;
48042;SDS011;33988;47.992;8.820;2023-07-29T06:41:24;3.35;;;2.45;;
48042;SDS011;33988;47.992;8.820;2023-07-29T06:43:51;2.72;;;2.42;;
48042;SDS011;33988;47.992;8.820;2023-07-29T06:46:18;2.90;;;2.60;;
48042;SDS011;33988;47.992;8.820;2023-07-29T06:48:45;2.42;;;2.10;;
48042;SDS011;33988;47.992;8.820;2023-07-29T06:51:16;2.65;;;2.38;;
48042;SDS011;33988;47.992;8.820;2023-07-29T06:53:43;2.88;;;2.55;;
48042;SDS011;33988;47.992;8.820;2023-07-29T06:56:13;2.15;;;1.95;;
48042;SDS011;33988;47.992;8.820;2023-07-29T06:58:41;3.13;;;2.10;;
48042;SDS011;33988;47.992;8.820;2023-07-29T07:01:10;2.85;;;2.35;;
48042;SDS011;33988;47.992;8.820;2023-07-29T07:03:37;2.85;;;2.38;;
48042;SDS011;33988;47.992;8.820;2023-07-29T07:06:04;2.50;;;2.20;;
48042;SDS011;33988;47.992;8.820;2023-07-29T07:08:33;3.08;;;2.47;;
48042;SDS011;33988;47.992;8.820;2023-07-29T07:11:01;2.20;;;2.00;;
48042;SDS011;33988;47.992;8.820;2023-07-29T07:13:28;2.28;;;2.08;;
48042;SDS011;33988;47.992;8.820;2023-07-29T07:15:57;3.00;;;2.25;;
48042;SDS011;33988;47.992;8.820;2023-07-29T07:18:24;2.30;;;2.10;;
48042;SDS011;33988;47.992;8.820;2023-07-29T07:20:53;5.25;;;2.67;;
48042;SDS011;33988;47.992;8.820;2023-07-29T07:23:20;3.33;;;2.58;;
48042;SDS011;33988;47.992;8.820;2023-07-29T07:25:47;2.60;;;2.10;;
48042;SDS011;33988;47.992;8.820;2023-07-29T07:28:14;2.63;;;2.33;;
48042;SDS011;33988;47.992;8.820;2023-07-29T07:30:41;2.50;;;2.28;;
48042;SDS011;33988;47.992;8.820;2023-07-29T07:33:11;4.90;;;2.00;;
48042;SDS011;33988;47.992;8.820;2023-07-29T07:35:38;2.45;;;2.25;;
48042;SDS011;33988;47.992;8.820;2023-07-29T07:38:04;7.57;;;2.35;;
48042;SDS011;33988;47.992;8.820;2023-07-29T07:40:38;2.85;;;2.55;;
48042;SDS011;33988;47.992;8.820;2023-07-29T07:43:05;4.63;;;2.60;;
48042;SDS011;33988;47.992;8.820;2023-07-29T07:45:34;2.65;;;2.38;;
48042;SDS011;33988;47.992;8.820;2023-07-29T07:48:01;2.67;;;2.47;;
48042;SDS011;33988;47.992;8.820;2023-07-29T07:50:29;3.00;;;2.17;;
48042;SDS011;33988;47.992;8.820;2023-07-29T07:53:01;4.50;;;2.20;;
48042;SDS011;33988;47.992;8.820;2023-07-29T07:55:28;2.45;;;2.25;;
48042;SDS011;33988;47.992;8.820;2023-07-29T07:57:55;2.38;;;1.98;;
48042;SDS011;33988;47.992;8.820;2023-07-29T08:00:22;2.60;;;2.40;;
48042;SDS011;33988;47.992;8.820;2023-07-29T08:02:51;3.22;;;2.28;;
48042;SDS011;33988;47.992;8.820;2023-07-29T08:05:18;2.20;;;2.00;;
48042;SDS011;33988;47.992;8.820;2023-07-29T08:07:48;3.20;;;2.40;;
48042;SDS011;33988;47.992;8.820;2023-07-29T08:10:15;2.45;;;2.22;;
48042;SDS011;33988;47.992;8.820;2023-07-29T08:12:42;4.60;;;2.33;;
48042;SDS011;33988;47.992;8.820;2023-07-29T08:15:08;2.55;;;2.00;;
48042;SDS011;33988;47.992;8.820;2023-07-29T08:17:38;2.17;;;1.90;;
48042;SDS011;33988;47.992;8.820;2023-07-29T08:20:05;3.20;;;1.80;;
48042;SDS011;33988;47.992;8.820;2023-07-29T08:22:33;2.22;;;1.85;;
48042;SDS011;33988;47.992;8.820;2023-07-29T08:24:59;2.53;;;1.90;;
48042;SDS011;33988;47.992;8.820;2023-07-29T08:27:26;2.90;;;2.20;;
48042;SDS011;33988;47.992;8.820;2023-07-29T08:29:53;2.55;;;1.85;;
48042;SDS011;33988;47.992;8.820;2023-07-29T08:32:21;1.85;;;1.60;;
48042;SDS011;33988;47.992;8.820;2023-07-29T08:34:50;2.25;;;1.95;;
48042;SDS011;33988;47.992;8.820;2023-07-29T08:37:17;1.73;;;1.60;;
48042;SDS011;33988;47.992;8.820;2023-07-29T08:39:46;3.53;;;1.83;;
48042;SDS011;33988;47.992;8.820;2023-07-29T08:42:13;2.10;;;1.90;;
48042;SDS011;33988;47.992;8.820;2023-07-29T08:44:45;8.13;;;1.73;;
48042;SDS011;33988;47.992;8.820;2023-07-29T08:47:16;2.00;;;1.80;;
48042;SDS011;33988;47.992;8.820;2023-07-29T08:49:44;2.05;;;1.85;;
48042;SDS011;33988;47.992;8.820;2023-07-29T08:52:12;3.10;;;2.17;;
48042;SDS011;33988;47.992;8.820;2023-07-29T08:54:43;5.75;;;2.00;;
48042;SDS011;33988;47.992;8.820;2023-07-29T08:57:10;2.28;;;2.08;;
48042;SDS011;33988;47.992;8.820;2023-07-29T08:59:37;3.05;;;1.88;;
48042;SDS011;33988;47.992;8.820;2023-07-29T09:02:04;2.15;;;1.98;;
48042;SDS011;33988;47.992;8.820;2023-07-29T09:04:31;2.22;;;1.80;;
48042;SDS011;33988;47.992;8.820;2023-07-29T09:06:58;2.60;;;1.90;;
48042;SDS011;33988;47.992;8.820;2023-07-29T09:09:26;1.98;;;1.75;;
48042;SDS011;33988;47.992;8.820;2023-07-29T09:11:56;1.90;;;1.70;;
48042;SDS011;33988;47.992;8.820;2023-07-29T09:14:24;3.60;;;2.10;;
48042;SDS011;33988;47.992;8.820;2023-07-29T09:16:51;1.88;;;1.77;;
48042;SDS011;33988;47.992;8.820;2023-07-29T09:19:20;1.58;;;1.48;;
48042;SDS011;33988;47.992;8.820;2023-07-29T09:21:53;2.65;;;1.90;;
48042;SDS011;33988;47.992;8.820;2023-07-29T09:24:20;2.15;;;1.90;;
48042;SDS011;33988;47.992;8.820;2023-07-29T09:26:51;2.13;;;1.83;;
48042;SDS011;33988;47.992;8.820;2023-07-29T09:29:21;3.17;;;2.00;;
48042;SDS011;33988;47.992;8.820;2023-07-29T09:31:50;2.13;;;1.63;;
48042;SDS011;33988;47.992;8.820;2023-07-29T09:34:17;2.33;;;1.98;;
48042;SDS011;33988;47.992;8.820;2023-07-29T09:36:44;2.08;;;1.85;;
48042;SDS011;33988;47.992;8.820;2023-07-29T09:39:11;2.33;;;2.05;;
48042;SDS011;33988;47.992;8.820;2023-07-29T09:41:39;3.72;;;2.30;;
48042;SDS011;33988;47.992;8.820;2023-07-29T09:44:10;2.33;;;1.90;;
48042;SDS011;33988;47.992;8.820;2023-07-29T09:46:37;4.10;;;1.88;;
48042;SDS011;33988;47.992;8.820;2023-07-29T09:49:06;2.25;;;2.03;;
48042;SDS011;33988;47.992;8.820;2023-07-29T09:51:37;2.50;;;1.65;;
48042;SDS011;33988;47.992;8.820;2023-07-29T09:54:08;2.10;;;1.85;;
48042;SDS011;33988;47.992;8.820;2023-07-29T09:56:41;2.17;;;1.70;;
48042;SDS011;33988;47.992;8.820;2023-07-29T09:59:11;1.95;;;1.75;;
48042;SDS011;33988;47.992;8.820;2023-07-29T10:01:41;2.63;;;2.00;;
48042;SDS011;33988;47.992;8.820;2023-07-29T10:04:08;3.63;;;2.38;;
48042;SDS011;33988;47.992;8.820;2023-07-29T10:06:39;1.97;;;1.77;;
48042;SDS011;33988;47.992;8.820;2023-07-29T10:09:08;1.70;;;1.60;;
48042;SDS011;33988;47.992;8.820;2023-07-29T10:11:39;1.65;;;1.55;;
48042;SDS011;33988;47.992;8.820;2023-07-29T10:14:08;1.95;;;1.60;;
48042;SDS011;33988;47.992;8.820;2023-07-29T10:16:39;2.45;;;1.67;;
48042;SDS011;33988;47.992;8.820;2023-07-29T10:19:08;2.08;;;1.88;;
48042;SDS011;33988;47.992;8.820;2023-07-29T10:21:40;2.15;;;1.58;;
48042;SDS011;33988;47.992;8.820;2023-07-29T10:24:13;2.23;;;1.80;;
48042;SDS011;33988;47.992;8.820;2023-07-29T10:26:58;1.80;;;1.70;;
48042;SDS011;33988;47.992;8.820;2023-07-29T10:29:29;3.15;;;2.15;;
48042;SDS011;33988;47.992;8.820;2023-07-29T10:32:01;2.10;;;1.90;;
48042;SDS011;33988;47.992;8.820;2023-07-29T10:34:32;2.15;;;1.95;;
48042;SDS011;33988;47.992;8.820;2023-07-29T10:37:02;2.53;;;1.85;;
48042;SDS011;33988;47.992;8.820;2023-07-29T10:39:40;2.00;;;1.80;;
48042;SDS011;33988;47.992;8.820;2023-07-29T10:42:18;1.70;;;1.60;;
48042;SDS011;33988;47.992;8.820;2023-07-29T10:44:49;2.42;;;1.75;;
48042;SDS011;33988;47.992;8.820;2023-07-29T10:49:59;2.10;;;1.90;;
48042;SDS011;33988;47.992;8.820;2023-07-29T10:55:02;2.03;;;1.73;;
48042;SDS011;33988;47.992;8.820;2023-07-29T10:57:34;1.80;;;1.67;;
48042;SDS011;33988;47.992;8.820;2023-07-29T11:00:07;1.92;;;1.70;;
48042;SDS011;33988;47.992;8.820;2023-07-29T11:02:35;1.95;;;1.75;;
48042;SDS011;33988;47.992;8.820;2023-07-29T11:05:05;1.63;;;1.52;;
48042;SDS011;33988;47.992;8.820;2023-07-29T11:07:44;1.80;;;1.70;;
48042;SDS011;33988;47.992;8.820;2023-07-29T11:10:13;2.67;;;1.58;;
48042;SDS011;33988;47.992;8.820;2023-07-29T11:17:52;1.92;;;1.63;;
48042;SDS011;33988;47.992;8.820;2023-07-29T11:20:29;1.95;;;1.85;;
48042;SDS011;33988;47.992;8.820;2023-07-29T11:22:59;1.73;;;1.63;;
48042;SDS011;33988;47.992;8.820;2023-07-29T11:25:28;2.60;;;1.73;;
48042;SDS011;33988;47.992;8.820;2023-07-29T11:27:59;1.75;;;1.65;;
48042;SDS011;33988;47.992;8.820;2023-07-29T11:30:31;1.83;;;1.73;;
48042;SDS011;33988;47.992;8.820;2023-07-29T11:33:00;2.25;;;1.58;;
48042;SDS011;33988;47.992;8.820;2023-07-29T11:35:27;1.52;;;1.42;;
48042;SDS011;33988;47.992;8.820;2023-07-29T11:37:54;1.50;;;1.40;;
48042;SDS011;33988;47.992;8.820;2023-07-29T11:40:26;1.75;;;1.58;;
48042;SDS011;33988;47.992;8.820;2023-07-29T11:42:56;1.60;;;1.50;;
48042;SDS011;33988;47.992;8.820;2023-07-29T11:45:23;2.03;;;1.40;;
48042;SDS011;33988;47.992;8.820;2023-07-29T11:47:57;1.58;;;1.48;;
48042;SDS011;33988;47.992;8.820;2023-07-29T11:50:24;2.80;;;1.60;;
48042;SDS011;33988;47.992;8.820;2023-07-29T11:52:54;1.65;;;1.42;;
48042;SDS011;33988;47.992;8.820;2023-07-29T11:55:21;1.30;;;1.20;;
48042;SDS011;33988;47.992;8.820;2023-07-29T11:57:50;1.30;;;1.20;;
48042;SDS011;33988;47.992;8.820;2023-07-29T12:00:18;1.70;;;1.52;;
48042;SDS011;33988;47.992;8.820;2023-07-29T12:02:47;1.38;;;1.20;;
48042;SDS011;33988;47.992;8.820;2023-07-29T12:05:15;1.50;;;1.40;;
48042;SDS011;33988;47.992;8.820;2023-07-29T12:07:45;1.42;;;1.33;;
48042;SDS011;33988;47.992;8.820;2023-07-29T12:10:12;1.35;;;1.25;;
48042;SDS011;33988;47.992;8.820;2023-07-29T12:12:47;3.10;;;1.33;;
48042;SDS011;33988;47.992;8.820;2023-07-29T12:15:22;1.67;;;1.40;;
48042;SDS011;33988;47.992;8.820;2023-07-29T12:17:56;1.33;;;1.23;;
48042;SDS011;33988;47.992;8.820;2023-07-29T12:20:26;1.30;;;1.20;;
48042;SDS011;33988;47.992;8.820;2023-07-29T12:22:56;1.48;;;1.08;;
48042;SDS011;33988;47.992;8.820;2023-07-29T12:25:31;1.42;;;1.33;;
48042;SDS011;33988;47.992;8.820;2023-07-29T12:28:04;6.20;;;1.40;;
48042;SDS011;33988;47.992;8.820;2023-07-29T12:30:33;2.30;;;1.50;;
48042;SDS011;33988;47.992;8.820;2023-07-29T12:33:00;1.48;;;1.38;;
48042;SDS011;33988;47.992;8.820;2023-07-29T12:35:39;1.30;;;1.20;;
48042;SDS011;33988;47.992;8.820;2023-07-29T12:38:06;1.65;;;1.50;;
48042;SDS011;33988;47.992;8.820;2023-07-29T12:40:37;3.10;;;1.30;;
48042;SDS011;33988;47.992;8.820;2023-07-29T12:43:05;1.58;;;1.25;;
48042;SDS011;33988;47.992;8.820;2023-07-29T12:45:36;1.30;;;1.20;;
48042;SDS011;33988;47.992;8.820;2023-07-29T12:48:06;1.50;;;1.30;;
48042;SDS011;33988;47.992;8.820;2023-07-29T12:50:35;1.63;;;1.42;;
48042;SDS011;33988;47.992;8.820;2023-07-29T12:53:05;1.60;;;1.50;;
48042;SDS011;33988;47.992;8.820;2023-07-29T12:58:00;3.15;;;1.10;;
48042;SDS011;33988;47.992;8.820;2023-07-29T13:00:28;2.03;;;1.38;;
48042;SDS011;33988;47.992;8.820;2023-07-29T13:02:55;2.95;;;1.48;;
48042;SDS011;33988;47.992;8.820;2023-07-29T13:05:22;2.20;;;1.48;;
48042;SDS011;33988;47.992;8.820;2023-07-29T13:07:52;1.45;;;1.35;;
48042;SDS011;33988;47.992;8.820;2023-07-29T13:10:18;1.33;;;1.23;;
48042;SDS011;33988;47.992;8.820;2023-07-29T13:12:46;1.58;;;1.48;;
48042;SDS011;33988;47.992;8.820;2023-07-29T13:15:13;1.95;;;1.50;;
48042;SDS011;33988;47.992;8.820;2023-07-29T13:17:42;1.75;;;1.50;;
48042;SDS011;33988;47.992;8.820;2023-07-29T13:20:09;2.08;;;1.50;;
48042;SDS011;33988;47.992;8.820;2023-07-29T13:22:36;1.50;;;1.40;;
48042;SDS011;33988;47.992;8.820;2023-07-29T13:25:03;1.55;;;1.40;;
48042;SDS011;33988;47.992;8.820;2023-07-29T13:27:30;1.90;;;1.75;;
48042;SDS011;33988;47.992;8.820;2023-07-29T13:29:57;2.03;;;1.45;;
48042;SDS011;33988;47.992;8.820;2023-07-29T13:32:24;1.60;;;1.50;;
48042;SDS011;33988;47.992;8.820;2023-07-29T13:34:53;3.15;;;1.40;;
48042;SDS011;33988;47.992;8.820;2023-07-29T13:37:20;2.38;;;1.50;;
48042;SDS011;33988;47.992;8.820;2023-07-29T13:39:47;1.70;;;1.60;;
48042;SDS011;33988;47.992;8.820;2023-07-29T13:42:14;2.40;;;1.65;;
48042;SDS011;33988;47.992;8.820;2023-07-29T13:44:41;2.10;;;1.75;;
48042;SDS011;33988;47.992;8.820;2023-07-29T13:47:10;1.80;;;1.70;;
48042;SDS011;33988;47.992;8.820;2023-07-29T13:49:40;1.90;;;1.52;;
48042;SDS011;33988;47.992;8.820;2023-07-29T13:52:09;1.98;;;1.33;;
48042;SDS011;33988;47.992;8.820;2023-07-29T13:54:36;3.00;;;1.35;;
48042;SDS011;33988;47.992;8.820;2023-07-29T13:57:05;2.50;;;1.75;;
48042;SDS011;33988;47.992;8.820;2023-07-29T13:59:36;2.10;;;1.60;;
48042;SDS011;33988;47.992;8.820;2023-07-29T14:02:06;1.60;;;1.33;;
48042;SDS011;33988;47.992;8.820;2023-07-29T14:04:35;2.05;;;1.75;;
48042;SDS011;33988;47.992;8.820;2023-07-29T14:07:04;1.52;;;1.42;;
48042;SDS011;33988;47.992;8.820;2023-07-29T14:09:32;3.00;;;2.10;;
48042;SDS011;33988;47.992;8.820;2023-07-29T14:11:59;1.50;;;1.40;;
48042;SDS011;33988;47.992;8.820;2023-07-29T14:14:28;1.48;;;1.38;;
48042;SDS011;33988;47.992;8.820;2023-07-29T14:16:57;1.70;;;1.60;;
48042;SDS011;33988;47.992;8.820;2023-07-29T14:19:26;2.47;;;1.77;;
48042;SDS011;33988;47.992;8.820;2023-07-29T14:21:57;1.67;;;1.50;;
48042;SDS011;33988;47.992;8.820;2023-07-29T14:24:24;1.77;;;1.67;;
48042;SDS011;33988;47.992;8.820;2023-07-29T14:26:51;1.98;;;1.65;;
48042;SDS011;33988;47.992;8.820;2023-07-29T14:29:18;5.63;;;2.15;;
48042;SDS011;33988;47.992;8.820;2023-07-29T14:31:45;2.53;;;1.60;;
48042;SDS011;33988;47.992;8.820;2023-07-29T14:34:12;2.15;;;1.58;;
48042;SDS011;33988;47.992;8.820;2023-07-29T14:36:39;2.03;;;1.63;;
48042;SDS011;33988;47.992;8.820;2023-07-29T14:39:06;2.53;;;1.75;;
48042;SDS011;33988;47.992;8.820;2023-07-29T14:41:34;2.13;;;1.90;;
48042;SDS011;33988;47.992;8.820;2023-07-29T14:44:03;2.47;;;1.80;;
48042;SDS011;33988;47.992;8.820;2023-07-29T14:46:30;2.10;;;1.63;;
48042;SDS011;33988;47.992;8.820;2023-07-29T14:48:57;3.33;;;1.83;;
48042;SDS011;33988;47.992;8.820;2023-07-29T14:51:26;1.73;;;1.50;;
48042;SDS011;33988;47.992;8.820;2023-07-29T14:53:53;2.00;;;1.80;;
48042;SDS011;33988;47.992;8.820;2023-07-29T14:56:22;2.97;;;1.70;;
48042;SDS011;33988;47.992;8.820;2023-07-29T14:58:49;1.88;;;1.70;;
48042;SDS011;33988;47.992;8.820;2023-07-29T15:01:16;1.92;;;1.77;;
48042;SDS011;33988;47.992;8.820;2023-07-29T15:03:43;1.70;;;1.60;;
48042;SDS011;33988;47.992;8.820;2023-07-29T15:06:15;2.30;;;1.55;;
48042;SDS011;33988;47.992;8.820;2023-07-29T15:08:43;2.83;;;1.50;;
48042;SDS011;33988;47.992;8.820;2023-07-29T15:11:10;1.73;;;1.63;;
48042;SDS011;33988;47.992;8.820;2023-07-29T15:13:41;2.50;;;1.80;;
48042;SDS011;33988;47.992;8.820;2023-07-29T15:16:08;1.70;;;1.60;;
48042;SDS011;33988;47.992;8.820;2023-07-29T15:18:40;2.03;;;1.70;;
48042;SDS011;33988;47.992;8.820;2023-07-29T15:21:10;1.80;;;1.65;;